Clifton, OH (45316)

9:32 AM EDT on September 29, 2016 (GMT -0400)
Yellow Springs | | Change Station

Elev 988 ft 39.79 °N, 83.88 °W | Updated 7 seconds ago

Overcast
Overcast
56.8 °F
Feels Like 56.8 °F
N
0.0
Wind Variable Wind from SSE
Gusts 0.0 mph

Today
High -- | Low -- °F
--% Chance of Precip.
Yesterday
High -- | Low -- °F
Precip. -- in
Pressure 30.07 in
Visibility 3.0 miles
Clouds Mostly Cloudy 600 ft
Mostly Cloudy 1100 ft
Overcast 2900 ft
Dew Point 57 °F
Humidity 99%
Rainfall 0.00 in
Snow Depth Not available.
7:30 AM 7:20 PM
Waning Crescent, 2% visible
SPECI KSGH 291313Z AUTO 08006KT 3SM BR BKN006 BKN011 OVC029 13/12 A3007 RMK AO2 CIG 004V007
Pressure 30.07 in
Visibility 3.0 miles
Clouds Mostly Cloudy 600 ft
Mostly Cloudy 1100 ft
Overcast 2900 ft
Dew Point 57 °F
Humidity 99%
Rainfall 0.00 in
Snow Depth Not available.
7:30 AM 7:20 PM
Waning Crescent, 2% visible
SPECI KSGH 291313Z AUTO 08006KT 3SM BR BKN006 BKN011 OVC029 13/12 A3007 RMK AO2 CIG 004V007

10-Day Weather Forecast

Almanac

Astronomy

Sep. 29, 2016 Rise Set
Actual Time
Civil Twilight
Nautical Twilight
Astronomical Twilight
Moon
Length of Visible Light
Length of Day
Tomorrow will be .
, % of the Moon is Illuminated

Today's Extremes

State Highs State Lows

Community

WunderPhotos

Upload Photos

1,942,470 photos uploaded!

WunderBlog® & News

Nearby

Air Quality

  Air Quality AQ Index Pollutant
Not available.

Snow Depth

Station Depth Elevation

Earthquake Activity

City Distance Mag. Time & Date
Minimum magnitude displayed is 2.5.

Coastal Water Temperatures

Place Temperature

Stations

Nearby Weather Stations

Station Location Temp. Windchill Dew Point Humidity Wind Precip. Elev Updated Type
                   

Watches & Warnings

There are currently no watches in effect.